Time,TemperatureF,DewpointF,PressureIn,WindDirection,WindDirectionDegrees,WindSpeedMPH,WindSpeedGustMPH,Humidity,HourlyPrecipIn,Conditions,Clouds,dailyrainin,SolarRadiationWatts/m^2,SoftwareType,DateUTC
2013-06-16 00:00:00,56.0,56.0,-100.00,East,90,1.0,-999.0,99,0.04,,,-99.99,0.000000,,2013-06-16 05:00:00,
2013-06-16 00:34:00,56.0,56.0,-100.00,East,90,1.0,-999.0,99,0.04,,,-99.99,0.000000,,2013-06-16 05:34:00,
2013-06-16 00:43:00,56.0,56.0,-100.00,East,90,1.0,-999.0,99,0.04,,,-99.99,0.000000,,2013-06-16 05:43:00,
2013-06-16 00:52:00,56.0,56.0,-100.00,East,90,1.0,-999.0,99,0.04,,,-99.99,0.000000,,2013-06-16 05:52:00,
2013-06-16 01:00:00,58.0,58.0,-100.00,NW,315,3.0,-999.0,99,-99.99,,,-99.99,0.000000,,2013-06-16 06:00:00,
2013-06-16 01:33:00,58.0,58.0,-100.00,NW,315,3.0,-999.0,99,-99.99,,,-99.99,0.000000,,2013-06-16 06:33:00,
2013-06-16 01:43:00,58.0,58.0,-100.00,NW,315,3.0,-999.0,99,-99.99,,,-99.99,0.000000,,2013-06-16 06:43:00,
2013-06-16 01:52:00,58.0,58.0,-100.00,NW,315,3.0,-999.0,99,-99.99,,,-99.99,0.000000,,2013-06-16 06:52:00,
2013-06-16 02:00:00,59.0,59.0,-100.00,WNW,292,5.0,-999.0,99,-99.99,,,-99.99,0.000000,,2013-06-16 07:00:00,
2013-06-16 02:33:00,59.0,59.0,-100.00,WNW,292,5.0,-999.0,99,-99.99,,,-99.99,0.000000,,2013-06-16 07:33:00,
2013-06-16 02:43:00,59.0,59.0,-100.00,WNW,292,5.0,-999.0,99,-99.99,,,-99.99,0.000000,,2013-06-16 07:43:00,
2013-06-16 02:53:00,59.0,59.0,-100.00,WNW,292,5.0,-999.0,99,-99.99,,,-99.99,0.000000,,2013-06-16 07:53:00,
2013-06-16 03:00:00,59.0,59.0,-100.00,WNW,292,5.0,-999.0,99,-99.99,,,-99.99,0.000000,,2013-06-16 08:00:00,
2013-06-16 03:34:00,59.0,59.0,-100.00,WNW,292,5.0,-999.0,99,-99.99,,,-99.99,0.000000,,2013-06-16 08:34:00,
2013-06-16 03:43:00,59.0,59.0,-100.00,WNW,292,5.0,-999.0,99,-99.99,,,-99.99,0.000000,,2013-06-16 08:43:00,
2013-06-16 03:54:00,59.0,59.0,-100.00,WNW,292,5.0,-999.0,99,-99.99,,,-99.99,0.000000,,2013-06-16 08:54:00,
2013-06-16 04:00:00,59.0,59.0,-100.00,WNW,292,8.0,-999.0,99,-99.99,,,-99.99,0.000000,,2013-06-16 09:00:00,
2013-06-16 04:33:00,59.0,59.0,-100.00,WNW,292,8.0,-999.0,99,-99.99,,,-99.99,0.000000,,2013-06-16 09:33:00,
2013-06-16 04:43:00,59.0,59.0,-100.00,WNW,292,8.0,-999.0,99,-99.99,,,-99.99,0.000000,,2013-06-16 09:43:00,
2013-06-16 04:52:00,59.0,59.0,-100.00,WNW,292,8.0,-999.0,99,-99.99,,,-99.99,0.000000,,2013-06-16 09:52:00,
2013-06-16 05:00:00,59.0,59.0,-100.00,WNW,292,4.0,-999.0,99,-99.99,,,-99.99,1.160000,,2013-06-16 10:00:00,
2013-06-16 05:33:00,59.0,59.0,-100.00,WNW,292,4.0,-999.0,99,-99.99,,,-99.99,1.160000,,2013-06-16 10:33:00,
2013-06-16 05:43:00,59.0,59.0,-100.00,WNW,292,4.0,-999.0,99,-99.99,,,-99.99,1.160000,,2013-06-16 10:43:00,
2013-06-16 05:54:00,59.0,59.0,-100.00,WNW,292,4.0,-999.0,99,-99.99,,,-99.99,1.160000,,2013-06-16 10:54:00,
2013-06-16 06:00:00,60.0,60.0,-100.00,WNW,292,6.0,-999.0,99,-99.99,,,-99.99,31.320000,,2013-06-16 11:00:00,
2013-06-16 06:34:00,60.0,60.0,-100.00,WNW,292,6.0,-999.0,99,-99.99,,,-99.99,31.320000,,2013-06-16 11:34:00,
2013-06-16 06:43:00,60.0,60.0,-100.00,WNW,292,6.0,-999.0,99,-99.99,,,-99.99,31.320000,,2013-06-16 11:43:00,
2013-06-16 06:53:00,60.0,60.0,-100.00,WNW,292,6.0,-999.0,99,-99.99,,,-99.99,31.320000,,2013-06-16 11:53:00,
2013-06-16 07:00:00,62.0,62.0,-100.00,West,270,8.0,-999.0,99,0.01,,,-99.99,172.839996,,2013-06-16 12:00:00,
2013-06-16 07:33:00,62.0,62.0,-100.00,West,270,8.0,-999.0,99,0.01,,,-99.99,172.839996,,2013-06-16 12:33:00,
2013-06-16 07:43:00,62.0,62.0,-100.00,West,270,8.0,-999.0,99,0.01,,,-99.99,172.839996,,2013-06-16 12:43:00,
2013-06-16 07:53:00,62.0,62.0,-100.00,West,270,8.0,-999.0,99,0.01,,,-99.99,172.839996,,2013-06-16 12:53:00,
2013-06-16 08:00:00,63.0,62.0,-100.00,West,270,8.0,-999.0,98,-99.99,,,-99.99,331.760010,,2013-06-16 13:00:00,
2013-06-16 08:34:00,63.0,62.0,-100.00,West,270,8.0,-999.0,98,-99.99,,,-99.99,331.760010,,2013-06-16 13:34:00,
2013-06-16 08:43:00,63.0,62.0,-100.00,West,270,8.0,-999.0,98,-99.99,,,-99.99,331.760010,,2013-06-16 13:43:00,
2013-06-16 08:54:00,63.0,62.0,-100.00,West,270,8.0,-999.0,98,-99.99,,,-99.99,331.760010,,2013-06-16 13:54:00,
2013-06-16 09:00:00,64.0,62.0,-100.00,West,270,9.0,-999.0,91,-99.99,,,-99.99,518.520020,,2013-06-16 14:00:00,
2013-06-16 09:34:00,64.0,62.0,-100.00,West,270,9.0,-999.0,91,-99.99,,,-99.99,518.520020,,2013-06-16 14:34:00,
2013-06-16 09:44:00,64.0,62.0,-100.00,West,270,9.0,-999.0,91,-99.99,,,-99.99,518.520020,,2013-06-16 14:44:00,
2013-06-16 09:53:00,64.0,62.0,-100.00,West,270,9.0,-999.0,91,-99.99,,,-99.99,518.520020,,2013-06-16 14:53:00,
2013-06-16 10:00:00,67.0,62.0,-100.00,West,270,9.0,-999.0,82,-99.99,,,-99.99,651.919983,,2013-06-16 15:00:00,
2013-06-16 10:34:00,67.0,62.0,-100.00,West,270,9.0,-999.0,82,-99.99,,,-99.99,651.919983,,2013-06-16 15:34:00,
2013-06-16 10:43:00,67.0,62.0,-100.00,West,270,9.0,-999.0,82,-99.99,,,-99.99,651.919983,,2013-06-16 15:43:00,
2013-06-16 10:53:00,67.0,62.0,-100.00,West,270,9.0,-999.0,82,-99.99,,,-99.99,651.919983,,2013-06-16 15:53:00,
2013-06-16 11:00:00,68.0,62.0,-100.00,West,270,10.0,-999.0,79,-99.99,,,-99.99,751.679993,,2013-06-16 16:00:00,
2013-06-16 11:33:00,68.0,62.0,-100.00,West,270,10.0,-999.0,79,-99.99,,,-99.99,751.679993,,2013-06-16 16:33:00,
2013-06-16 11:43:00,68.0,62.0,-100.00,West,270,10.0,-999.0,79,-99.99,,,-99.99,751.679993,,2013-06-16 16:43:00,
2013-06-16 11:53:00,68.0,62.0,-100.00,West,270,10.0,-999.0,79,-99.99,,,-99.99,751.679993,,2013-06-16 16:53:00,
2013-06-16 12:00:00,71.0,61.0,-100.00,West,270,9.0,-999.0,70,-99.99,,,-99.99,794.599976,,2013-06-16 17:00:00,
2013-06-16 12:34:00,71.0,61.0,-100.00,West,270,9.0,-999.0,70,-99.99,,,-99.99,794.599976,,2013-06-16 17:34:00,
2013-06-16 12:43:00,71.0,61.0,-100.00,West,270,9.0,-999.0,70,-99.99,,,-99.99,794.599976,,2013-06-16 17:43:00,
2013-06-16 12:53:00,71.0,61.0,-100.00,West,270,9.0,-999.0,70,-99.99,,,-99.99,794.599976,,2013-06-16 17:53:00,
2013-06-16 13:00:00,75.0,59.0,-100.00,West,270,8.0,-999.0,58,-99.99,,,-99.99,808.520020,,2013-06-16 18:00:00,
2013-06-16 13:34:00,75.0,59.0,-100.00,West,270,8.0,-999.0,58,-99.99,,,-99.99,808.520020,,2013-06-16 18:34:00,
2013-06-16 13:43:00,75.0,59.0,-100.00,West,270,8.0,-999.0,58,-99.99,,,-99.99,808.520020,,2013-06-16 18:43:00,
2013-06-16 13:52:00,75.0,59.0,-100.00,West,270,8.0,-999.0,58,-99.99,,,-99.99,808.520020,,2013-06-16 18:52:00,
2013-06-16 14:00:00,76.0,57.0,-100.00,West,270,7.0,-999.0,50,-99.99,,,-99.99,722.679993,,2013-06-16 19:00:00,
2013-06-16 14:34:00,76.0,57.0,-100.00,West,270,7.0,-999.0,50,-99.99,,,-99.99,722.679993,,2013-06-16 19:34:00,
2013-06-16 14:43:00,76.0,57.0,-100.00,West,270,7.0,-999.0,50,-99.99,,,-99.99,722.679993,,2013-06-16 19:43:00,
2013-06-16 14:53:00,76.0,57.0,-100.00,West,270,7.0,-999.0,50,-99.99,,,-99.99,722.679993,,2013-06-16 19:53:00,
2013-06-16 15:00:00,76.0,56.0,-100.00,West,270,6.0,-999.0,49,-99.99,,,-99.99,609.000000,,2013-06-16 20:00:00,
2013-06-16 15:33:00,76.0,56.0,-100.00,West,270,6.0,-999.0,49,-99.99,,,-99.99,609.000000,,2013-06-16 20:33:00,
2013-06-16 15:43:00,76.0,56.0,-100.00,West,270,6.0,-999.0,49,-99.99,,,-99.99,609.000000,,2013-06-16 20:43:00,
2013-06-16 15:53:00,76.0,56.0,-100.00,West,270,6.0,-999.0,49,-99.99,,,-99.99,609.000000,,2013-06-16 20:53:00,
2013-06-16 16:00:00,77.0,55.0,-100.00,WNW,292,6.0,-999.0,47,-99.99,,,-99.99,706.440002,,2013-06-16 21:00:00,
2013-06-16 16:33:00,77.0,55.0,-100.00,WNW,292,6.0,-999.0,47,-99.99,,,-99.99,706.440002,,2013-06-16 21:33:00,
2013-06-16 16:42:00,77.0,55.0,-100.00,WNW,292,6.0,-999.0,47,-99.99,,,-99.99,706.440002,,2013-06-16 21:42:00,
2013-06-16 16:53:00,77.0,55.0,-100.00,WNW,292,6.0,-999.0,47,-99.99,,,-99.99,706.440002,,2013-06-16 21:53:00,
2013-06-16 17:00:00,75.0,54.0,-100.00,West,270,6.0,-999.0,47,-99.99,,,-99.99,380.480011,,2013-06-16 22:00:00,
2013-06-16 17:32:00,75.0,54.0,-100.00,West,270,6.0,-999.0,47,-99.99,,,-99.99,380.480011,,2013-06-16 22:32:00,
2013-06-16 17:42:00,75.0,54.0,-100.00,West,270,6.0,-999.0,47,-99.99,,,-99.99,380.480011,,2013-06-16 22:42:00,
2013-06-16 17:52:00,75.0,54.0,-100.00,West,270,6.0,-999.0,47,-99.99,,,-99.99,380.480011,,2013-06-16 22:52:00,
2013-06-16 18:00:00,76.0,51.0,-100.00,WNW,292,7.0,-999.0,42,-99.99,,,-99.99,288.839996,,2013-06-16 23:00:00,
2013-06-16 18:32:00,76.0,51.0,-100.00,WNW,292,7.0,-999.0,42,-99.99,,,-99.99,288.839996,,2013-06-16 23:32:00,
2013-06-16 18:42:00,76.0,51.0,-100.00,WNW,292,7.0,-999.0,42,-99.99,,,-99.99,288.839996,,2013-06-16 23:42:00,
2013-06-16 18:52:00,76.0,51.0,-100.00,WNW,292,7.0,-999.0,42,-99.99,,,-99.99,288.839996,,2013-06-16 23:52:00,
2013-06-16 20:00:00,70.0,52.0,-100.00,West,270,5.0,-999.0,54,-99.99,,,-99.99,120.639999,,2013-06-17 01:00:00,
2013-06-16 20:32:00,70.0,52.0,-100.00,West,270,5.0,-999.0,54,-99.99,,,-99.99,120.639999,,2013-06-17 01:32:00,
2013-06-16 20:43:00,70.0,52.0,-100.00,West,270,5.0,-999.0,54,-99.99,,,-99.99,120.639999,,2013-06-17 01:43:00,
2013-06-16 20:53:00,70.0,52.0,-100.00,West,270,5.0,-999.0,54,-99.99,,,-99.99,120.639999,,2013-06-17 01:53:00,
2013-06-16 21:00:00,65.0,53.0,-100.00,West,270,7.0,-999.0,67,0.01,,,-99.99,4.640000,,2013-06-17 02:00:00,
2013-06-16 21:34:00,65.0,53.0,-100.00,West,270,7.0,-999.0,67,0.01,,,-99.99,4.640000,,2013-06-17 02:34:00,
2013-06-16 21:43:00,65.0,53.0,-100.00,West,270,7.0,-999.0,67,0.01,,,-99.99,4.640000,,2013-06-17 02:43:00,
2013-06-16 21:53:00,65.0,53.0,-100.00,West,270,7.0,-999.0,67,0.01,,,-99.99,4.640000,,2013-06-17 02:53:00,
2013-06-16 22:00:00,63.0,54.0,-100.00,North,0,8.0,-999.0,73,-99.99,,,-99.99,0.000000,,2013-06-17 03:00:00,
2013-06-16 22:33:00,63.0,54.0,-100.00,North,0,8.0,-999.0,73,-99.99,,,-99.99,0.000000,,2013-06-17 03:33:00,
2013-06-16 22:44:00,63.0,54.0,-100.00,North,0,8.0,-999.0,73,-99.99,,,-99.99,0.000000,,2013-06-17 03:44:00,
2013-06-16 22:54:00,63.0,54.0,-100.00,North,0,8.0,-999.0,73,-99.99,,,-99.99,0.000000,,2013-06-17 03:54:00,
2013-06-16 23:00:00,60.0,55.0,-100.00,West,270,3.0,-999.0,82,0.01,,,-99.99,0.000000,,2013-06-17 04:00:00,
2013-06-16 23:34:00,60.0,55.0,-100.00,West,270,3.0,-999.0,82,0.01,,,-99.99,0.000000,,2013-06-17 04:34:00,
2013-06-16 23:43:00,60.0,55.0,-100.00,West,270,3.0,-999.0,82,0.01,,,-99.99,0.000000,,2013-06-17 04:43:00,
2013-06-16 23:53:00,60.0,55.0,-100.00,West,270,3.0,-999.0,82,0.01,,,-99.99,0.000000,,2013-06-17 04:53:00,